Time;durP1;ratioP1;P1;durP2;ratioP2;P2;SDS_P1;SDS_P2;PMS_P1;PMS_P2;Temp;Humidity;BMP_temperature;BMP_pressure;BME280_temperature;BME280_humidity;BME280_pressure;Samples;Min_cycle;Max_cycle;Signal;HPM_P1;HPM_P2
2022/04/04 00:00:57;;;;;;;6.63;5.40;;;3.50;96.30;;;;;;7339347;19;109155;-83
2022/04/04 00:03:24;;;;;;;8.70;5.20;;;3.50;96.50;;;;;;7337952;19;108446;-83
2022/04/04 00:05:51;;;;;;;10.90;5.70;;;3.40;96.40;;;;;;7337637;19;108967;-83
2022/04/04 00:08:19;;;;;;;7.77;4.90;;;3.40;96.40;;;;;;7337843;19;110125;-83
2022/04/04 00:10:46;;;;;;;9.10;5.23;;;3.40;96.40;;;;;;7338381;19;109453;-83
2022/04/04 00:13:13;;;;;;;9.70;5.23;;;3.40;96.40;;;;;;7338740;19;111081;-83
2022/04/04 00:15:41;;;;;;;7.97;5.03;;;3.30;96.40;;;;;;7343659;19;112035;-83
2022/04/04 00:18:12;;;;;;;8.70;4.97;;;3.30;96.50;;;;;;7337709;19;109870;-83
2022/04/04 00:20:40;;;;;;;6.17;4.77;;;3.30;96.50;;;;;;7338348;19;109945;-82
2022/04/04 00:23:12;;;;;;;9.87;5.10;;;3.20;96.50;;;;;;7336858;19;110680;-83
2022/04/04 00:25:41;;;;;;;8.13;5.27;;;3.20;96.50;;;;;;7338889;19;109575;-82
2022/04/04 00:28:08;;;;;;;11.10;5.27;;;3.20;96.70;;;;;;7338621;19;113134;-82
2022/04/04 00:30:36;;;;;;;12.53;5.97;;;3.20;96.90;;;;;;7338051;19;110368;-83
2022/04/04 00:33:04;;;;;;;8.80;5.50;;;3.20;96.80;;;;;;7337618;19;111996;-83
2022/04/04 00:35:31;;;;;;;9.30;5.53;;;3.10;96.70;;;;;;7338846;19;110247;-82
2022/04/04 00:37:59;;;;;;;8.73;5.13;;;3.10;96.80;;;;;;7342123;19;108487;-82
2022/04/04 00:40:27;;;;;;;10.57;5.10;;;3.00;96.70;;;;;;7337865;19;110399;-83
2022/04/04 00:42:54;;;;;;;7.57;5.03;;;3.00;97.20;;;;;;7345696;19;110387;-83
2022/04/04 00:45:21;;;;;;;9.00;4.83;;;3.00;96.90;;;;;;7345491;19;109130;-83
2022/04/04 00:47:49;;;;;;;11.53;5.40;;;3.00;96.90;;;;;;7343061;19;112988;-83
2022/04/04 00:50:16;;;;;;;10.07;5.20;;;2.90;96.90;;;;;;7343874;19;108791;-83
2022/04/04 00:52:43;;;;;;;6.87;5.03;;;2.90;96.90;;;;;;7343636;19;109026;-83
2022/04/04 00:55:10;;;;;;;8.50;4.90;;;2.90;96.90;;;;;;7342872;19;110525;-83
2022/04/04 00:57:38;;;;;;;8.33;4.47;;;2.90;96.80;;;;;;7344604;19;108648;-82
2022/04/04 01:00:09;;;;;;;9.27;4.90;;;2.90;97.10;;;;;;7350234;19;109640;-82
2022/04/04 01:02:37;;;;;;;6.23;4.53;;;2.90;97.20;;;;;;7345304;19;108413;-83
2022/04/04 01:05:04;;;;;;;7.27;4.93;;;2.90;97.20;;;;;;7342214;19;109722;-83
2022/04/04 01:07:32;;;;;;;9.27;4.93;;;2.90;97.20;;;;;;7345172;19;112604;-83
2022/04/04 01:09:59;;;;;;;7.80;4.50;;;2.90;97.40;;;;;;7345061;19;108863;-83
2022/04/04 01:12:26;;;;;;;10.27;4.73;;;3.00;97.60;;;;;;7342992;19;111988;-83
2022/04/04 01:14:53;;;;;;;6.80;4.70;;;3.00;97.50;;;;;;7342398;19;110695;-83
2022/04/04 01:17:27;;;;;;;9.87;4.37;;;3.00;97.60;;;;;;7344168;19;111779;-83
2022/04/04 01:19:58;;;;;;;10.57;4.20;;;3.00;97.60;;;;;;7338075;19;110180;-83
2022/04/04 01:22:25;;;;;;;5.93;4.37;;;2.90;97.80;;;;;;7347808;19;110548;-82
2022/04/04 01:24:52;;;;;;;7.00;4.23;;;3.00;97.70;;;;;;7343115;19;108959;-82
2022/04/04 01:27:19;;;;;;;6.90;4.13;;;2.90;97.90;;;;;;7340320;19;111057;-82
2022/04/04 01:29:47;;;;;;;7.33;4.20;;;2.90;98.10;;;;;;7343109;19;111205;-82
2022/04/04 01:32:14;;;;;;;5.47;4.37;;;2.90;98.00;;;;;;7343274;19;109455;-82
2022/04/04 01:34:41;;;;;;;9.30;4.10;;;2.90;98.00;;;;;;7343128;19;110129;-83
2022/04/04 01:37:08;;;;;;;7.63;4.53;;;2.90;98.10;;;;;;7340791;19;110510;-82
2022/04/04 01:39:35;;;;;;;9.40;4.83;;;2.90;98.20;;;;;;7341133;19;109858;-82
2022/04/04 01:42:03;;;;;;;8.77;4.77;;;2.90;98.30;;;;;;7342546;19;111699;-83
2022/04/04 01:44:30;;;;;;;7.17;4.23;;;3.00;98.20;;;;;;7348277;19;108643;-82
2022/04/04 01:46:58;;;;;;;7.53;4.17;;;3.00;98.40;;;;;;7343512;19;112712;-82
2022/04/04 01:49:25;;;;;;;5.47;4.53;;;2.90;98.30;;;;;;7342879;19;109092;-83
2022/04/04 01:51:52;;;;;;;6.67;4.20;;;3.00;98.40;;;;;;7340428;19;111444;-82
2022/04/04 01:54:19;;;;;;;8.17;4.60;;;2.90;98.50;;;;;;7341286;19;110583;-83
2022/04/04 01:56:46;;;;;;;7.70;4.73;;;2.90;98.50;;;;;;7342112;19;108783;-83
2022/04/04 01:59:13;;;;;;;7.40;4.83;;;2.90;98.70;;;;;;7340827;19;110591;-83
2022/04/04 02:01:41;;;;;;;5.43;4.10;;;2.90;98.80;;;;;;7343511;19;110247;-83
2022/04/04 02:04:11;;;;;;;5.40;4.03;;;2.90;98.70;;;;;;7346293;19;109908;-83
2022/04/04 02:06:39;;;;;;;7.93;4.30;;;2.90;98.90;;;;;;7343967;19;109457;-83
2022/04/04 02:09:07;;;;;;;5.87;4.47;;;2.90;99.00;;;;;;7343616;19;108768;-82
2022/04/04 02:11:34;;;;;;;6.00;4.10;;;2.90;99.00;;;;;;7342106;19;111944;-83
2022/04/04 02:14:02;;;;;;;7.23;3.87;;;3.00;98.90;;;;;;7341891;19;111573;-83
2022/04/04 02:16:30;;;;;;;6.60;3.77;;;2.90;98.90;;;;;;7343040;19;110647;-83
2022/04/04 02:18:58;;;;;;;7.27;3.83;;;3.00;99.00;;;;;;7337841;19;109739;-83
2022/04/04 02:21:26;;;;;;;7.43;4.50;;;2.90;99.10;;;;;;7341757;19;112364;-83
2022/04/04 02:23:53;;;;;;;7.60;4.33;;;2.90;99.10;;;;;;7342993;19;108693;-83
2022/04/04 02:26:21;;;;;;;7.97;4.90;;;2.90;99.10;;;;;;7346028;19;108901;-84
2022/04/04 02:28:48;;;;;;;8.33;3.90;;;2.90;99.40;;;;;;7340358;19;108654;-82
2022/04/04 02:31:15;;;;;;;8.27;4.70;;;2.90;99.20;;;;;;7341787;19;109928;-82
2022/04/04 02:33:42;;;;;;;6.90;4.43;;;2.90;99.30;;;;;;7342187;19;110284;-83
2022/04/04 02:36:09;;;;;;;7.47;4.70;;;2.90;99.40;;;;;;7342764;19;108269;-83
2022/04/04 02:38:37;;;;;;;5.40;4.03;;;2.90;99.60;;;;;;7341732;19;108761;-82
2022/04/04 02:41:05;;;;;;;5.77;4.40;;;2.90;99.50;;;;;;7342922;19;109956;-83
2022/04/04 02:43:32;;;;;;;8.80;4.10;;;2.90;99.70;;;;;;7342321;19;108932;-83
2022/04/04 02:45:59;;;;;;;6.87;4.20;;;2.90;99.70;;;;;;7337710;19;109498;-83
2022/04/04 02:48:26;;;;;;;7.50;4.13;;;2.90;99.80;;;;;;7347024;19;110323;-82
2022/04/04 02:50:54;;;;;;;7.30;4.87;;;2.90;99.80;;;;;;7340942;19;110183;-83
2022/04/04 02:53:21;;;;;;;8.30;4.13;;;2.90;99.90;;;;;;7339090;19;110015;-82
2022/04/04 02:58:35;;;;;;;8.47;4.60;;;3.00;99.90;;;;;;7340745;19;109475;-82
2022/04/04 03:01:03;;;;;;;8.10;4.43;;;3.00;99.90;;;;;;7341378;19;110238;-82
2022/04/04 03:03:31;;;;;;;6.90;4.37;;;3.00;99.90;;;;;;7337805;19;108373;-82
2022/04/04 03:05:58;;;;;;;7.07;4.20;;;3.00;99.90;;;;;;7341540;19;112344;-83
2022/04/04 03:08:25;;;;;;;6.47;4.40;;;3.00;99.90;;;;;;7339382;19;110640;-82
2022/04/04 03:10:52;;;;;;;7.23;4.67;;;3.00;99.90;;;;;;7344342;19;110417;-82
2022/04/04 03:13:19;;;;;;;5.93;4.83;;;3.10;99.90;;;;;;7339955;19;112488;-83
2022/04/04 03:15:46;;;;;;;9.53;4.47;;;3.10;99.90;;;;;;7340682;19;109959;-82
2022/04/04 03:18:14;;;;;;;6.33;4.67;;;3.10;99.90;;;;;;7338495;19;113175;-82
2022/04/04 03:20:41;;;;;;;7.53;4.63;;;3.10;99.90;;;;;;7338498;19;112460;-83
2022/04/04 03:23:08;;;;;;;7.87;5.03;;;3.10;99.90;;;;;;7338154;19;110554;-82
2022/04/04 03:25:35;;;;;;;11.00;4.97;;;3.10;99.90;;;;;;7340430;19;108447;-82
2022/04/04 03:28:02;;;;;;;7.73;4.87;;;3.10;99.90;;;;;;7341353;19;109514;-82
2022/04/04 03:30:30;;;;;;;13.10;5.47;;;3.10;99.90;;;;;;7341907;19;108265;-82
2022/04/04 03:32:58;;;;;;;9.13;5.53;;;3.10;99.90;;;;;;7345667;19;109858;-82
2022/04/04 03:35:27;;;;;;;9.13;5.60;;;3.10;99.90;;;;;;7338899;19;108621;-82
2022/04/04 03:37:55;;;;;;;8.13;5.30;;;3.20;99.90;;;;;;7339309;19;108543;-82
2022/04/04 03:40:23;;;;;;;7.77;5.57;;;3.20;99.90;;;;;;7337612;19;112488;-83
2022/04/04 03:42:53;;;;;;;7.03;5.40;;;3.20;99.90;;;;;;7339137;19;109515;-82
2022/04/04 03:45:21;;;;;;;10.03;5.50;;;3.20;99.90;;;;;;7338990;19;109815;-82
2022/04/04 03:47:48;;;;;;;8.70;5.23;;;3.30;99.90;;;;;;7339338;19;110513;-82
2022/04/04 03:50:17;;;;;;;8.67;6.40;;;3.30;99.90;;;;;;7340509;19;109052;-82
2022/04/04 03:52:53;;;;;;;13.43;5.80;;;3.30;99.90;;;;;;7338368;19;109406;-82
2022/04/04 03:55:26;;;;;;;10.33;6.17;;;3.30;99.90;;;;;;7344422;19;110225;-82
2022/04/04 03:57:53;;;;;;;7.60;5.80;;;3.40;99.90;;;;;;7339919;19;109692;-82
2022/04/04 04:00:22;;;;;;;8.17;5.83;;;3.40;99.90;;;;;;7336637;19;110514;-82
2022/04/04 04:02:50;;;;;;;8.20;5.77;;;3.40;99.90;;;;;;7338942;19;108370;-81
2022/04/04 04:05:17;;;;;;;11.00;6.03;;;3.50;99.90;;;;;;7335365;19;111555;-82
2022/04/04 04:07:45;;;;;;;9.23;6.20;;;3.50;99.90;;;;;;7337290;19;110311;-83
2022/04/04 04:10:12;;;;;;;9.90;6.27;;;3.50;99.90;;;;;;7338956;19;108862;-81
2022/04/04 04:12:40;;;;;;;12.00;6.40;;;3.60;99.90;;;;;;7338010;19;109647;-82
2022/04/04 04:15:13;;;;;;;10.33;6.60;;;3.60;99.90;;;;;;7344273;19;110219;-83
2022/04/04 04:17:41;;;;;;;11.47;6.43;;;3.60;99.90;;;;;;7344031;19;110144;-81
2022/04/04 04:20:20;;;;;;;11.60;7.07;;;3.70;99.90;;;;;;7343886;19;110115;-80
2022/04/04 04:22:49;;;;;;;13.13;7.23;;;3.70;99.90;;;;;;7346318;19;109816;-81
2022/04/04 04:25:16;;;;;;;12.27;6.87;;;3.70;99.90;;;;;;7345607;19;109607;-80
2022/04/04 04:27:45;;;;;;;11.37;7.03;;;3.80;99.90;;;;;;7343204;19;109756;-81
2022/04/04 04:30:13;;;;;;;11.13;7.33;;;3.80;99.90;;;;;;7346460;19;108879;-82
2022/04/04 04:32:47;;;;;;;11.40;7.03;;;3.90;99.90;;;;;;7345071;19;109495;-81
2022/04/04 04:35:15;;;;;;;13.90;7.23;;;3.90;99.90;;;;;;7344458;19;111610;-81
2022/04/04 04:37:43;;;;;;;12.07;7.40;;;3.90;99.90;;;;;;7351181;19;109740;-82
2022/04/04 04:40:10;;;;;;;15.43;7.97;;;3.90;99.90;;;;;;7342093;19;112934;-82
2022/04/04 04:42:37;;;;;;;18.73;8.03;;;4.00;99.90;;;;;;7343641;19;110133;-82
2022/04/04 04:45:14;;;;;;;12.50;7.30;;;4.00;99.90;;;;;;7343301;19;109834;-81
2022/04/04 04:47:41;;;;;;;12.00;7.57;;;4.00;99.90;;;;;;7343170;19;110470;-82
2022/04/04 04:50:13;;;;;;;15.70;8.13;;;4.00;99.90;;;;;;7343779;19;108379;-82
2022/04/04 04:52:41;;;;;;;19.03;7.90;;;4.10;99.90;;;;;;7344649;19;111124;-81
2022/04/04 04:55:09;;;;;;;14.73;7.90;;;4.10;99.90;;;;;;7345094;19;110141;-81
2022/04/04 04:57:37;;;;;;;12.63;7.70;;;4.10;99.90;;;;;;7345575;19;108507;-81
2022/04/04 05:00:07;;;;;;;17.27;8.57;;;4.10;99.90;;;;;;7346776;19;109360;-81
2022/04/04 05:02:34;;;;;;;15.00;8.67;;;4.20;99.90;;;;;;7344386;19;108862;-82
2022/04/04 05:05:04;;;;;;;14.30;8.40;;;4.20;99.90;;;;;;7342451;19;109963;-81
2022/04/04 05:07:32;;;;;;;13.10;8.70;;;4.20;99.90;;;;;;7344576;19;110568;-82
2022/04/04 05:10:00;;;;;;;16.00;7.97;;;4.20;99.90;;;;;;7344845;19;108365;-82
2022/04/04 05:12:27;;;;;;;14.67;8.60;;;4.30;99.90;;;;;;7343906;19;109887;-82
2022/04/04 05:14:54;;;;;;;13.03;8.53;;;4.30;99.90;;;;;;7343963;19;110488;-81
2022/04/04 05:17:21;;;;;;;15.47;8.70;;;4.40;99.90;;;;;;7343783;19;108533;-82
2022/04/04 05:19:48;;;;;;;16.67;7.73;;;4.40;99.90;;;;;;7341413;19;109373;-82
2022/04/04 05:22:15;;;;;;;14.63;8.23;;;4.40;99.90;;;;;;7347454;19;110262;-82
2022/04/04 05:24:42;;;;;;;14.10;8.40;;;4.50;99.90;;;;;;7341536;19;109696;-82
2022/04/04 05:27:09;;;;;;;15.90;8.47;;;4.40;99.90;;;;;;7338975;19;110136;-81
2022/04/04 05:29:37;;;;;;;17.00;8.23;;;4.40;99.90;;;;;;7344584;19;108307;-81
2022/04/04 05:32:04;;;;;;;15.13;8.73;;;4.50;99.90;;;;;;7342856;19;111090;-80
2022/04/04 05:34:32;;;;;;;14.13;8.80;;;4.50;99.90;;;;;;7342923;19;113472;-80
2022/04/04 05:36:59;;;;;;;15.77;8.27;;;4.50;99.90;;;;;;7343028;19;111513;-80
2022/04/04 05:39:27;;;;;;;10.00;7.80;;;4.50;99.90;;;;;;7342200;19;109015;-80
2022/04/04 05:41:54;;;;;;;12.97;8.07;;;4.60;99.90;;;;;;7344526;19;110177;-79
2022/04/04 05:44:21;;;;;;;14.03;8.80;;;4.60;99.90;;;;;;7349363;19;110581;-80
2022/04/04 05:46:48;;;;;;;16.93;8.30;;;4.70;99.90;;;;;;7343812;19;110178;-80
2022/04/04 05:49:15;;;;;;;13.20;8.23;;;4.70;99.90;;;;;;7341398;19;109637;-81
2022/04/04 05:51:43;;;;;;;13.70;7.60;;;4.80;99.90;;;;;;7342715;19;109568;-81
2022/04/04 05:54:30;;;;;;;11.43;7.93;;;4.80;99.90;;;;;;7340673;19;110047;-81
2022/04/04 05:56:57;;;;;;;12.90;7.70;;;4.90;99.90;;;;;;7341955;19;109035;-82
2022/04/04 05:59:25;;;;;;;20.67;8.30;;;4.90;99.90;;;;;;7341041;19;109600;-82
2022/04/04 06:01:52;;;;;;;11.73;7.23;;;5.00;99.90;;;;;;7341442;19;110668;-81
2022/04/04 06:04:20;;;;;;;17.50;7.97;;;5.00;99.90;;;;;;7339454;19;110045;-81
2022/04/04 06:06:47;;;;;;;10.97;7.20;;;5.10;99.90;;;;;;7349074;19;109624;-81
2022/04/04 06:09:14;;;;;;;9.73;6.73;;;5.20;99.90;;;;;;7342871;19;108427;-81
2022/04/04 06:11:42;;;;;;;13.20;8.03;;;5.20;99.90;;;;;;7342124;19;110057;-81
2022/04/04 06:14:09;;;;;;;14.33;7.80;;;5.30;99.90;;;;;;7343499;19;110278;-81
2022/04/04 06:16:36;;;;;;;26.47;8.10;;;5.40;99.90;;;;;;7342728;19;108465;-81
2022/04/04 06:19:03;;;;;;;16.77;8.30;;;5.40;99.90;;;;;;7340270;19;108861;-80
2022/04/04 06:21:31;;;;;;;13.20;7.33;;;5.50;99.90;;;;;;7340038;19;109776;-81
2022/04/04 06:23:58;;;;;;;16.20;7.73;;;5.60;99.90;;;;;;7341258;19;108380;-82
2022/04/04 06:26:26;;;;;;;12.83;6.57;;;5.70;99.90;;;;;;7348758;19;110145;-82
2022/04/04 06:28:54;;;;;;;12.73;7.67;;;5.80;99.90;;;;;;7342559;19;108405;-82
2022/04/04 06:31:21;;;;;;;12.37;6.87;;;5.80;99.90;;;;;;7340041;19;109616;-84
2022/04/04 06:33:49;;;;;;;14.67;6.73;;;5.90;99.90;;;;;;7341453;19;110065;-83
2022/04/04 06:36:16;;;;;;;11.73;7.07;;;5.90;99.90;;;;;;7340911;19;112352;-83
2022/04/04 06:38:43;;;;;;;11.10;7.37;;;6.00;99.90;;;;;;7339233;19;111986;-84
2022/04/04 06:41:11;;;;;;;14.30;7.10;;;6.10;99.90;;;;;;7340156;19;110189;-83
2022/04/04 06:43:38;;;;;;;11.30;7.13;;;6.10;99.90;;;;;;7339570;19;108603;-83
2022/04/04 06:46:06;;;;;;;10.03;7.20;;;6.10;99.90;;;;;;7340646;19;109180;-82
2022/04/04 06:48:33;;;;;;;13.53;6.83;;;6.20;99.90;;;;;;7347388;19;110497;-83
2022/04/04 06:51:01;;;;;;;13.00;7.73;;;6.20;99.90;;;;;;7339842;19;109500;-82
2022/04/04 06:53:29;;;;;;;13.87;7.40;;;6.30;99.90;;;;;;7342160;19;110441;-82
2022/04/04 06:55:56;;;;;;;13.73;6.93;;;6.30;99.90;;;;;;7341089;19;108937;-83
2022/04/04 06:58:26;;;;;;;14.57;6.97;;;6.30;99.90;;;;;;7342196;19;109935;-82
2022/04/04 07:00:53;;;;;;;11.60;7.00;;;6.40;99.90;;;;;;7341163;19;109959;-82
2022/04/04 07:03:20;;;;;;;12.87;7.17;;;6.50;99.90;;;;;;7339104;19;109543;-82
2022/04/04 07:05:49;;;;;;;13.77;7.10;;;6.50;99.90;;;;;;7341467;19;109903;-82
2022/04/04 07:08:16;;;;;;;11.03;6.73;;;6.60;99.90;;;;;;7341998;19;110078;-82
2022/04/04 07:10:44;;;;;;;13.73;7.20;;;6.70;99.90;;;;;;7346853;19;109991;-82
2022/04/04 07:13:11;;;;;;;14.93;7.20;;;6.70;99.90;;;;;;7341199;19;110206;-82
2022/04/04 07:15:39;;;;;;;13.93;7.53;;;6.90;99.90;;;;;;7339296;19;109245;-82
2022/04/04 07:18:06;;;;;;;12.47;7.67;;;6.90;99.90;;;;;;7338763;19;113769;-82
2022/04/04 07:20:34;;;;;;;10.97;6.73;;;7.00;99.90;;;;;;7338940;19;110186;-82
2022/04/04 07:23:01;;;;;;;13.47;7.30;;;7.00;99.90;;;;;;7341715;19;108286;-82
2022/04/04 07:25:28;;;;;;;13.50;6.67;;;7.10;99.90;;;;;;7341401;19;109843;-82
2022/04/04 07:27:55;;;;;;;9.60;6.80;;;7.20;99.90;;;;;;7341743;19;110133;-82
2022/04/04 07:30:23;;;;;;;15.13;6.60;;;7.40;99.90;;;;;;7340663;19;108468;-82
2022/04/04 07:32:52;;;;;;;12.20;7.53;;;7.50;99.90;;;;;;7345710;19;109806;-82
2022/04/04 07:35:20;;;;;;;14.23;6.87;;;7.50;99.90;;;;;;7339247;19;108762;-82
2022/04/04 07:37:49;;;;;;;13.27;6.33;;;7.60;99.90;;;;;;7340470;19;109610;-81
2022/04/04 07:40:19;;;;;;;14.67;6.67;;;7.70;99.90;;;;;;7341100;19;110478;-82
2022/04/04 07:42:47;;;;;;;16.10;6.27;;;7.70;99.90;;;;;;7340676;19;108496;-81
2022/04/04 07:45:16;;;;;;;12.37;7.10;;;7.80;99.90;;;;;;7340894;19;109578;-83
2022/04/04 07:47:46;;;;;;;13.27;6.33;;;7.90;99.90;;;;;;7339945;19;108872;-82
2022/04/04 07:50:15;;;;;;;11.93;6.75;;;8.00;99.90;;;;;;7337504;19;108521;-82
2022/04/04 07:52:43;;;;;;;23.63;6.50;;;8.00;99.90;;;;;;7340464;19;109760;-83
2022/04/04 07:55:10;;;;;;;14.73;6.27;;;8.10;99.90;;;;;;7345238;19;109925;-83
2022/04/04 07:57:38;;;;;;;10.32;6.20;;;8.20;99.90;;;;;;7337675;19;108894;-83
2022/04/04 08:00:07;;;;;;;19.17;6.38;;;8.20;99.90;;;;;;7339109;19;110525;-81
2022/04/04 08:02:34;;;;;;;18.75;6.95;;;8.30;99.90;;;;;;7337189;19;108352;-83
2022/04/04 08:05:04;;;;;;;13.13;6.53;;;8.30;99.90;;;;;;7337401;19;108374;-81
2022/04/04 08:07:31;;;;;;;22.08;6.47;;;8.40;99.90;;;;;;7338849;19;109417;-83
2022/04/04 08:09:58;;;;;;;12.20;6.03;;;8.50;99.90;;;;;;7337460;19;109190;-82
2022/04/04 08:12:29;;;;;;;8.45;5.78;;;8.40;99.90;;;;;;7340141;19;109447;-83
2022/04/04 08:14:57;;;;;;;12.75;6.15;;;8.50;99.90;;;;;;7340202;19;109360;-83
2022/04/04 08:17:24;;;;;;;12.15;6.47;;;8.50;99.90;;;;;;7342480;19;109376;-82
2022/04/04 08:19:51;;;;;;;13.60;6.93;;;8.60;99.90;;;;;;7338338;19;110859;-83
2022/04/04 08:22:19;;;;;;;9.50;6.47;;;8.60;99.90;;;;;;7338217;19;109954;-82
2022/04/04 08:24:46;;;;;;;12.07;5.90;;;8.70;99.90;;;;;;7339032;19;109511;-83
2022/04/04 08:27:13;;;;;;;15.98;6.30;;;8.70;99.90;;;;;;7338982;19;110510;-84
2022/04/04 08:29:40;;;;;;;10.90;5.68;;;8.80;99.90;;;;;;7339276;19;109229;-83
2022/04/04 08:32:08;;;;;;;19.65;5.68;;;8.70;99.90;;;;;;7339805;19;109379;-84
2022/04/04 08:34:36;;;;;;;7.32;6.00;;;8.80;99.90;;;;;;7337353;19;110284;-83
2022/04/04 08:37:03;;;;;;;11.52;5.68;;;8.80;99.90;;;;;;7344256;19;108406;-83
2022/04/04 08:39:30;;;;;;;7.28;5.57;;;8.80;99.90;;;;;;7339059;19;110095;-82
2022/04/04 08:41:58;;;;;;;17.52;5.88;;;8.80;99.90;;;;;;7336574;19;108431;-83
2022/04/04 08:44:25;;;;;;;13.98;5.95;;;8.90;99.90;;;;;;7339068;19;109947;-82
2022/04/04 08:46:52;;;;;;;9.52;5.60;;;8.80;99.90;;;;;;7337819;19;110178;-84
2022/04/04 08:49:20;;;;;;;10.88;6.20;;;8.90;99.90;;;;;;7336751;19;108660;-83
2022/04/04 08:51:51;;;;;;;8.27;5.63;;;8.90;99.90;;;;;;7338494;19;111655;-82
2022/04/04 08:54:18;;;;;;;11.02;5.15;;;8.90;99.90;;;;;;7338426;19;110243;-84
2022/04/04 08:56:45;;;;;;;13.27;5.95;;;8.90;99.90;;;;;;7338574;19;108482;-83
2022/04/04 08:59:13;;;;;;;12.18;6.32;;;9.00;99.90;;;;;;7342882;19;109612;-84
2022/04/04 09:01:40;;;;;;;25.85;6.15;;;8.90;99.90;;;;;;7338324;19;108903;-82
2022/04/04 09:04:07;;;;;;;21.17;6.43;;;8.90;99.90;;;;;;7343771;19;109554;-83
2022/04/04 09:06:56;;;;;;;9.45;6.10;;;9.00;99.90;;;;;;7344363;19;110263;-84
2022/04/04 09:09:44;;;;;;;19.00;6.28;;;9.00;99.90;;;;;;7345156;19;108878;-83
2022/04/04 09:12:17;;;;;;;19.23;6.57;;;8.90;99.90;;;;;;7345330;19;108933;-83
2022/04/04 09:14:53;;;;;;;11.07;7.07;;;9.00;99.90;;;;;;7344653;19;110196;-82
2022/04/04 09:17:27;;;;;;;12.77;6.80;;;8.90;99.90;;;;;;7345109;19;110010;-84
2022/04/04 09:19:55;;;;;;;10.50;6.47;;;8.90;99.90;;;;;;7342403;19;109179;-83
2022/04/04 09:22:22;;;;;;;11.30;6.60;;;8.90;99.90;;;;;;7346920;19;109195;-82
2022/04/04 09:24:58;;;;;;;17.58;6.80;;;8.90;99.90;;;;;;7345502;19;109948;-84
2022/04/04 09:27:30;;;;;;;11.30;7.10;;;8.90;99.90;;;;;;7344647;19;112758;-83
2022/04/04 09:30:07;;;;;;;24.85;7.40;;;8.90;99.90;;;;;;7345286;19;109019;-82
2022/04/04 09:32:46;;;;;;;10.57;7.05;;;8.80;99.90;;;;;;7343258;19;109875;-82
2022/04/04 09:35:15;;;;;;;12.30;7.10;;;8.80;99.90;;;;;;7344197;19;111092;-82
2022/04/04 09:37:48;;;;;;;11.20;7.05;;;8.80;99.90;;;;;;7343642;19;108405;-82
2022/04/04 09:40:27;;;;;;;9.65;7.28;;;8.80;99.90;;;;;;7343430;19;109478;-82
2022/04/04 09:42:59;;;;;;;14.57;7.10;;;8.70;99.90;;;;;;7342085;19;110467;-82
2022/04/04 09:45:31;;;;;;;14.95;7.47;;;8.70;99.90;;;;;;7347942;19;108489;-82
2022/04/04 09:48:02;;;;;;;11.43;7.40;;;8.70;99.90;;;;;;7342356;19;110182;-82
2022/04/04 09:50:32;;;;;;;13.75;7.00;;;8.60;99.90;;;;;;7342994;19;109108;-82
2022/04/04 09:53:06;;;;;;;14.13;7.13;;;8.60;99.90;;;;;;7344599;19;109125;-84
2022/04/04 09:55:38;;;;;;;12.45;8.20;;;8.60;99.90;;;;;;7342329;19;110922;-83
2022/04/04 09:58:08;;;;;;;11.43;7.68;;;8.40;99.90;;;;;;7343083;19;108961;-82
2022/04/04 10:00:37;;;;;;;11.70;7.90;;;8.40;99.90;;;;;;7343015;19;109339;-82
2022/04/04 10:03:08;;;;;;;14.30;7.78;;;8.40;99.90;;;;;;7341124;19;109468;-82
2022/04/04 10:05:37;;;;;;;10.70;7.45;;;8.30;99.90;;;;;;7339858;19;109418;-82
2022/04/04 10:08:05;;;;;;;12.43;7.97;;;8.30;99.90;;;;;;7348438;19;112315;-81
2022/04/04 10:10:32;;;;;;;17.73;8.77;;;8.30;99.90;;;;;;7341830;19;109379;-82
2022/04/04 10:12:59;;;;;;;12.82;9.15;;;8.20;99.90;;;;;;7341525;19;111320;-82
2022/04/04 10:15:34;;;;;;;15.40;9.23;;;8.10;99.90;;;;;;7341219;19;110205;-81
2022/04/04 10:18:02;;;;;;;16.85;8.70;;;8.10;99.90;;;;;;7343812;19;109416;-80
2022/04/04 10:20:30;;;;;;;8.13;6.95;;;8.10;99.90;;;;;;7343398;19;109521;-81
2022/04/04 10:22:58;;;;;;;13.05;8.88;;;8.10;99.90;;;;;;7339776;19;110170;-81
2022/04/04 10:25:28;;;;;;;14.70;7.80;;;8.10;99.90;;;;;;7342646;19;108583;-82
2022/04/04 10:27:56;;;;;;;13.88;7.95;;;8.10;99.90;;;;;;7347802;19;109972;-80
2022/04/04 10:30:40;;;;;;;13.65;7.75;;;7.90;99.90;;;;;;7342082;19;109869;-78
2022/04/04 10:33:37;;;;;;;9.68;8.20;;;8.00;99.90;;;;;;7341422;19;109458;-81
2022/04/04 10:36:16;;;;;;;12.80;8.90;;;7.90;99.90;;;;;;7340931;19;110189;-81
2022/04/04 10:38:49;;;;;;;16.23;9.30;;;7.90;99.90;;;;;;7341192;19;108407;-81
2022/04/04 10:41:18;;;;;;;9.70;8.40;;;8.00;99.90;;;;;;7342693;19;109816;-81
2022/04/04 10:43:50;;;;;;;10.25;8.52;;;7.90;99.90;;;;;;7337859;19;109276;-80
2022/04/04 10:46:19;;;;;;;11.85;8.25;;;7.90;99.90;;;;;;7342059;19;108442;-80
2022/04/04 10:48:58;;;;;;;11.32;8.73;;;7.90;99.90;;;;;;7342879;19;109605;-81
2022/04/04 10:51:38;;;;;;;11.30;8.95;;;7.90;99.90;;;;;;7347480;19;109833;-81
2022/04/04 10:54:07;;;;;;;12.65;8.02;;;7.90;99.90;;;;;;7341478;19;108817;-81
2022/04/04 10:56:44;;;;;;;11.88;8.60;;;7.90;99.90;;;;;;7341730;19;110163;-80
2022/04/04 10:59:23;;;;;;;12.13;7.93;;;7.90;99.90;;;;;;7341955;19;108850;-81
2022/04/04 11:02:02;;;;;;;12.50;9.10;;;7.90;99.90;;;;;;7340851;19;110583;-80
2022/04/04 11:04:37;;;;;;;9.70;8.53;;;7.80;99.90;;;;;;7339668;19;110743;-81
2022/04/04 11:10:06;;;;;;;11.35;9.10;;;7.80;99.90;;;;;;7342192;19;109813;-81
2022/04/04 11:13:07;;;;;;;12.27;8.50;;;7.80;99.90;;;;;;7339694;19;110606;-80
2022/04/04 11:15:45;;;;;;;13.13;8.40;;;7.80;99.90;;;;;;7347123;19;108968;-82
2022/04/04 11:18:13;;;;;;;12.47;9.30;;;7.80;99.90;;;;;;7339013;19;113833;-81
2022/04/04 11:20:50;;;;;;;11.50;9.10;;;7.70;99.90;;;;;;7339188;19;108665;-81
2022/04/04 11:23:17;;;;;;;14.55;8.95;;;7.80;99.90;;;;;;7338465;19;109442;-80
2022/04/04 11:25:52;;;;;;;11.57;8.90;;;7.80;99.90;;;;;;7340105;19;109178;-81
2022/04/04 11:28:31;;;;;;;13.60;8.97;;;7.70;99.90;;;;;;7340398;19;108638;-83
2022/04/04 11:31:08;;;;;;;14.47;9.67;;;7.80;99.90;;;;;;7339422;19;110663;-82
2022/04/04 11:33:51;;;;;;;16.67;10.18;;;7.70;99.90;;;;;;7340525;19;111853;-81
2022/04/04 11:36:31;;;;;;;10.93;9.13;;;7.70;99.90;;;;;;7338871;19;110161;-82
2022/04/04 11:39:03;;;;;;;14.40;9.43;;;7.70;99.90;;;;;;7345774;19;109217;-81
2022/04/04 11:41:36;;;;;;;14.20;10.10;;;7.80;99.90;;;;;;7340308;19;109169;-83
2022/04/04 11:44:04;;;;;;;13.95;9.52;;;7.80;99.90;;;;;;7333857;19;111182;-82
2022/04/04 11:46:32;;;;;;;12.90;8.40;;;7.90;99.90;;;;;;7340501;19;110189;-82
2022/04/04 11:49:01;;;;;;;11.97;9.33;;;7.90;99.90;;;;;;7340407;19;108299;-82
2022/04/04 11:51:33;;;;;;;10.27;9.20;;;7.90;99.90;;;;;;7337245;19;108711;-82
2022/04/04 11:54:07;;;;;;;12.68;9.50;;;7.90;99.90;;;;;;7340439;19;110273;-82
2022/04/04 11:56:34;;;;;;;11.93;9.10;;;7.90;99.90;;;;;;7338026;19;108322;-82
2022/04/04 11:59:04;;;;;;;11.73;9.00;;;7.90;99.90;;;;;;7338907;19;109876;-82
2022/04/04 12:01:34;;;;;;;12.02;8.93;;;7.90;99.90;;;;;;7344804;19;110905;-82
2022/04/04 12:04:05;;;;;;;12.80;8.93;;;8.00;99.90;;;;;;7335722;19;109678;-82
2022/04/04 12:06:34;;;;;;;10.70;8.93;;;8.00;99.90;;;;;;7340635;19;110511;-82
2022/04/04 12:09:07;;;;;;;11.47;9.17;;;7.90;99.90;;;;;;7337564;19;108417;-81
2022/04/04 12:11:35;;;;;;;11.40;9.30;;;7.90;99.90;;;;;;7339914;19;109930;-81
2022/04/04 12:14:02;;;;;;;11.90;8.43;;;7.90;99.90;;;;;;7339483;19;110156;-82
2022/04/04 12:16:30;;;;;;;12.00;8.83;;;7.90;99.90;;;;;;7337830;19;110754;-83
2022/04/04 12:19:00;;;;;;;12.00;9.20;;;7.90;99.90;;;;;;7338993;19;112950;-82
2022/04/04 12:21:27;;;;;;;12.30;9.03;;;7.90;99.90;;;;;;7337818;19;110433;-82
2022/04/04 12:26:42;;;;;;;15.13;9.82;;;7.80;99.90;;;;;;7336191;19;110478;-82
2022/04/04 12:29:11;;;;;;;11.50;10.30;;;7.90;99.90;;;;;;7338617;19;111485;-81
2022/04/04 12:31:54;;;;;;;11.23;9.90;;;7.90;99.90;;;;;;7336216;19;111842;-81
2022/04/04 12:34:23;;;;;;;18.00;9.77;;;8.00;99.90;;;;;;7338469;19;110241;-82
2022/04/04 12:36:51;;;;;;;11.57;9.90;;;8.00;99.90;;;;;;7341963;19;108358;-82
2022/04/04 12:39:20;;;;;;;11.60;9.68;;;7.90;99.90;;;;;;7345812;19;109446;-82
2022/04/04 12:41:52;;;;;;;12.60;9.23;;;7.90;99.90;;;;;;7344429;19;110572;-83
2022/04/04 12:44:24;;;;;;;13.83;10.80;;;8.00;99.90;;;;;;7348468;19;108292;-81
2022/04/04 12:47:09;;;;;;;13.53;11.37;;;7.90;99.90;;;;;;7343910;19;110694;-81
2022/04/04 12:49:38;;;;;;;14.63;10.32;;;7.90;99.90;;;;;;7343766;19;111797;-81
2022/04/04 12:52:25;;;;;;;17.23;10.53;;;7.90;99.90;;;;;;7342596;19;111548;-81
2022/04/04 12:54:54;;;;;;;16.02;10.65;;;8.00;99.90;;;;;;7342393;19;110935;-82
2022/04/04 12:57:27;;;;;;;14.23;11.80;;;8.00;99.90;;;;;;7343424;19;111700;-82
2022/04/04 12:59:57;;;;;;;17.57;11.90;;;8.00;99.90;;;;;;7343778;19;111831;-82